createdAt,value
2023-04-05T00:02:21.401Z,50.30
2023-04-05T00:04:57.848Z,50.30
2023-04-05T00:07:30.070Z,50.40
2023-04-05T00:10:02.128Z,50.60
2023-04-05T00:12:36.541Z,50.90
2023-04-05T00:15:09.269Z,50.70
2023-04-05T00:17:41.404Z,50.70
2023-04-05T00:20:13.742Z,50.90
2023-04-05T00:22:46.750Z,51.10
2023-04-05T00:25:19.078Z,51.20
2023-04-05T00:27:53.696Z,51.30
2023-04-05T00:30:25.746Z,51.40
2023-04-05T00:32:57.631Z,51.60
2023-04-05T00:35:30.070Z,51.50
2023-04-05T00:38:02.551Z,51.50
2023-04-05T00:40:34.916Z,51.60
2023-04-05T00:43:09.583Z,51.80
2023-04-05T00:45:42.427Z,52.00
2023-04-05T00:48:14.804Z,57.00
2023-04-05T00:50:49.015Z,57.40
2023-04-05T00:53:22.189Z,60.60
2023-04-05T00:55:54.970Z,65.30
2023-04-05T00:58:29.944Z,80.60
2023-04-05T01:01:07.612Z,61.50
2023-04-05T01:03:44.953Z,61.50
2023-04-05T01:06:25.380Z,64.60
2023-04-05T01:09:06.783Z,59.90
2023-04-05T01:11:40.429Z,64.80
2023-04-05T01:14:15.129Z,61.60
2023-04-05T01:16:49.940Z,60.70
2023-04-05T01:19:22.014Z,62.30
2023-04-05T01:22:14.500Z,64.50
2023-04-05T01:25:03.024Z,65.40
2023-04-05T02:01:10.725Z,56.90
2023-04-05T02:03:42.887Z,63.90
2023-04-05T02:06:14.987Z,63.50
2023-04-05T02:08:47.047Z,61.70
2023-04-05T02:11:19.055Z,73.90
2023-04-05T02:13:51.087Z,54.60
2023-04-05T02:16:27.382Z,54.80
2023-04-05T02:19:00.021Z,81.10
2023-04-05T02:21:32.138Z,54.80
2023-04-05T02:24:04.197Z,55.00
2023-04-05T02:29:09.047Z,54.70
2023-04-05T02:31:43.771Z,55.30
2023-04-05T02:34:16.244Z,55.40
2023-04-05T02:36:49.546Z,55.50
2023-04-05T02:39:21.716Z,55.60
2023-04-05T02:41:53.701Z,55.80
2023-04-05T02:44:25.985Z,55.70
2023-04-05T02:47:00.830Z,55.70
2023-04-05T02:49:33.053Z,55.90
2023-04-05T02:52:05.377Z,55.90
2023-04-05T02:54:37.466Z,55.90
2023-04-05T02:57:12.442Z,55.90
2023-04-05T02:59:45.364Z,55.90
2023-04-05T03:02:20.004Z,56.00
2023-04-05T03:04:53.654Z,57.50
2023-04-05T03:07:25.990Z,59.90
2023-04-05T03:09:58.429Z,63.00
2023-04-05T03:12:30.812Z,71.30
2023-04-05T03:15:02.894Z,56.80
2023-04-05T03:17:37.607Z,56.30
2023-04-05T03:20:11.141Z,56.30
2023-04-05T03:22:43.278Z,56.30
2023-04-05T03:25:16.322Z,74.00
2023-04-05T03:27:48.396Z,56.70
2023-04-05T03:30:21.062Z,56.10
2023-04-05T03:32:57.472Z,56.20
2023-04-05T03:35:29.936Z,79.40
2023-04-05T03:38:02.047Z,56.30
2023-04-05T03:40:34.177Z,56.40
2023-04-05T03:43:06.048Z,56.50
2023-04-05T03:45:37.956Z,56.40
2023-04-05T03:48:12.492Z,81.30
2023-04-05T03:50:44.337Z,56.40
2023-04-05T03:53:19.259Z,56.50
2023-04-05T03:55:54.429Z,56.60
2023-04-05T03:58:26.876Z,62.40
2023-04-05T04:00:58.730Z,56.90
2023-04-05T04:03:33.174Z,57.10
2023-04-05T04:06:05.785Z,57.10
2023-04-05T04:08:37.941Z,57.10
2023-04-05T04:11:09.782Z,72.00
2023-04-05T04:13:41.844Z,57.00
2023-04-05T04:16:14.095Z,56.90
2023-04-05T04:18:48.920Z,57.00
2023-04-05T04:21:24.999Z,82.80
2023-04-05T04:23:57.809Z,57.00
2023-04-05T04:26:29.917Z,57.10
2023-04-05T04:29:03.486Z,75.20
2023-04-05T04:31:35.962Z,57.30
2023-04-05T04:34:10.764Z,57.30
2023-04-05T04:36:43.144Z,68.20
2023-04-05T04:39:16.231Z,57.40
2023-04-05T04:41:49.080Z,58.10
2023-04-05T04:44:28.309Z,57.70
2023-04-05T04:47:00.383Z,57.80
2023-04-05T04:49:35.105Z,57.90
2023-04-05T04:52:07.449Z,58.00
2023-04-05T04:54:42.732Z,76.10
2023-04-05T04:57:14.949Z,58.10
2023-04-05T04:59:46.956Z,58.10
2023-04-05T05:02:23.193Z,58.00
2023-04-05T05:04:57.837Z,57.90
2023-04-05T05:07:29.984Z,58.00
2023-04-05T05:10:02.184Z,58.00
2023-04-05T05:12:34.200Z,58.20
2023-04-05T05:15:07.768Z,58.10
2023-04-05T05:17:39.979Z,58.00
2023-04-05T05:20:15.065Z,58.20
2023-04-05T05:22:47.230Z,58.40
2023-04-05T05:25:19.125Z,58.40
2023-04-05T05:27:51.565Z,58.40
2023-04-05T05:30:23.650Z,58.30
2023-04-05T05:32:57.478Z,58.40
2023-04-05T05:35:32.423Z,58.50
2023-04-05T05:38:06.270Z,58.60
2023-04-05T05:40:39.974Z,58.60
2023-04-05T05:43:12.343Z,58.70
2023-04-05T05:45:44.409Z,58.80
2023-04-05T05:48:16.711Z,58.90
2023-04-05T05:50:51.532Z,59.00
2023-04-05T05:53:23.762Z,59.10
2023-04-05T05:55:56.787Z,59.10
2023-04-05T05:58:28.929Z,59.10
2023-04-05T06:01:03.806Z,59.10
2023-04-05T06:03:36.038Z,59.30
2023-04-05T06:06:11.388Z,59.50
2023-04-05T06:08:43.691Z,69.30
2023-04-05T06:11:19.519Z,59.50
2023-04-05T06:13:52.732Z,59.70
2023-04-05T06:16:24.909Z,59.80
2023-04-05T06:18:57.533Z,59.90
2023-04-05T06:21:32.413Z,59.90
2023-04-05T06:24:05.242Z,60.00
2023-04-05T06:26:37.312Z,60.10
2023-04-05T06:29:09.409Z,60.10
2023-04-05T06:31:42.818Z,60.20
2023-04-05T06:34:15.128Z,60.30
2023-04-05T06:36:50.226Z,60.40
2023-04-05T06:39:22.602Z,60.50
2023-04-05T06:41:54.637Z,60.50
2023-04-05T06:44:26.677Z,60.60
2023-04-05T06:46:58.824Z,60.60
2023-04-05T06:49:30.706Z,60.70
2023-04-05T06:52:06.866Z,60.70
2023-04-05T06:54:39.778Z,60.60
2023-04-05T06:57:11.895Z,60.70
2023-04-05T06:59:43.742Z,60.80
2023-04-05T07:02:16.031Z,60.80
2023-04-05T07:04:49.128Z,60.80
2023-04-05T07:07:23.959Z,60.90
2023-04-05T07:09:56.047Z,60.90
2023-04-05T07:12:27.925Z,61.00
2023-04-05T07:15:00.556Z,60.90
2023-04-05T07:17:32.807Z,60.90
2023-04-05T07:20:07.229Z,60.90
2023-04-05T07:22:41.904Z,61.00
2023-04-05T07:25:14.100Z,61.10
2023-04-05T07:27:46.204Z,61.10
2023-04-05T07:30:18.194Z,61.20
2023-04-05T07:32:50.280Z,60.80
2023-04-05T07:35:22.195Z,61.00
2023-04-05T07:37:57.161Z,61.00
2023-04-05T07:40:29.372Z,61.00
2023-04-05T07:43:01.380Z,61.00
2023-04-05T07:45:33.467Z,61.00
2023-04-05T07:48:05.650Z,61.10
2023-04-05T07:50:39.991Z,61.00
2023-04-05T07:53:15.336Z,61.00
2023-04-05T07:55:47.438Z,61.10
2023-04-05T07:58:19.774Z,61.10
2023-04-05T08:00:53.444Z,61.10
2023-04-05T08:03:25.698Z,61.00
2023-04-05T08:05:58.427Z,61.00
2023-04-05T08:08:33.689Z,61.10
2023-04-05T08:11:05.913Z,61.20
2023-04-05T08:13:41.635Z,61.20
2023-04-05T08:16:13.736Z,61.20
2023-04-05T08:18:45.960Z,61.10
2023-04-05T08:21:18.052Z,61.10
2023-04-05T08:23:52.830Z,61.10
2023-04-05T08:26:24.926Z,61.00
2023-04-05T08:28:57.074Z,61.10
2023-04-05T08:31:29.535Z,61.00
2023-04-05T08:34:01.763Z,61.00
2023-04-05T08:36:33.965Z,61.10
2023-04-05T08:39:08.608Z,61.00
2023-04-05T08:41:45.973Z,61.00
2023-04-05T08:44:21.111Z,60.90
2023-04-05T08:46:55.942Z,62.10
2023-04-05T08:49:28.441Z,63.10
2023-04-05T08:52:01.747Z,61.90
2023-04-05T08:54:36.475Z,62.10
2023-04-05T08:57:09.643Z,60.90
2023-04-05T08:59:44.618Z,60.90
2023-04-05T09:02:19.327Z,60.90
2023-04-05T09:04:52.748Z,60.90
2023-04-05T09:07:27.526Z,61.00
2023-04-05T09:10:03.206Z,60.80
2023-04-05T09:12:36.134Z,60.80
2023-04-05T09:15:09.081Z,60.80
2023-04-05T09:17:43.598Z,60.70
2023-04-05T09:20:15.830Z,60.70
2023-04-05T09:22:48.235Z,60.80
2023-04-05T09:25:39.510Z,60.70
2023-04-05T09:28:12.580Z,60.70
2023-04-05T09:30:47.264Z,60.60
2023-04-05T09:33:21.109Z,60.40
2023-04-05T09:35:56.032Z,60.40
2023-04-05T09:38:43.701Z,60.40
2023-04-05T09:41:18.356Z,60.40
2023-04-05T09:43:53.210Z,60.30
2023-04-05T09:46:34.177Z,60.30
2023-04-05T09:49:09.578Z,60.30
2023-04-05T09:51:41.757Z,60.20
2023-04-05T09:54:13.858Z,60.10
2023-04-05T09:56:57.754Z,60.00
2023-04-05T09:59:30.552Z,59.90
2023-04-05T10:02:04.135Z,59.70
2023-04-05T10:04:40.111Z,59.50
2023-04-05T10:07:14.150Z,59.30
2023-04-05T10:09:47.798Z,59.10
2023-04-05T10:12:27.134Z,58.90
2023-04-05T10:14:59.887Z,58.80
2023-04-05T10:17:39.092Z,58.60
2023-04-05T10:20:17.214Z,58.50
2023-04-05T10:22:59.782Z,58.40
2023-04-05T10:25:44.930Z,58.60
2023-04-05T10:28:32.298Z,58.80
2023-04-05T10:31:30.356Z,59.70
2023-04-05T10:34:12.695Z,57.70
2023-04-05T10:36:48.961Z,57.90
2023-04-05T10:39:26.540Z,57.80
2023-04-05T10:42:01.791Z,57.40
2023-04-05T10:44:37.532Z,57.20
2023-04-05T10:47:14.407Z,56.90
2023-04-05T10:49:49.412Z,56.50
2023-04-05T10:52:22.833Z,56.50
2023-04-05T10:54:59.185Z,56.90
2023-04-05T10:57:31.891Z,56.40
2023-04-05T11:00:09.154Z,56.50
2023-04-05T11:02:41.793Z,56.60
2023-04-05T11:05:29.530Z,56.60
2023-04-05T11:08:05.587Z,56.50
2023-04-05T11:10:39.784Z,56.30
2023-04-05T11:13:12.273Z,56.20
2023-04-05T11:15:47.068Z,55.90
2023-04-05T11:18:22.590Z,55.70
2023-04-05T11:21:07.572Z,55.60
2023-04-05T11:24:01.504Z,55.50
2023-04-05T11:26:54.663Z,55.40
2023-04-05T11:29:49.749Z,55.40
2023-04-05T11:32:37.829Z,55.20
2023-04-05T11:35:14.596Z,55.10
2023-04-05T11:38:10.501Z,55.10
2023-04-05T11:40:43.860Z,54.90
2023-04-05T11:43:16.187Z,56.20
2023-04-05T11:45:48.950Z,74.50
2023-04-05T11:48:23.641Z,58.80
2023-04-05T11:50:57.357Z,74.80
2023-04-05T11:53:29.442Z,56.30
2023-04-05T11:56:09.179Z,55.30
2023-04-05T11:58:41.793Z,56.20
2023-04-05T12:01:13.888Z,59.70
2023-04-05T12:03:53.863Z,55.60
2023-04-05T12:06:26.649Z,55.50
2023-04-05T12:08:58.741Z,55.60
2023-04-05T12:11:33.408Z,55.20
2023-04-05T12:14:05.455Z,54.90
2023-04-05T12:16:48.649Z,54.50
2023-04-05T12:19:23.499Z,53.90
2023-04-05T12:21:55.615Z,52.50
2023-04-05T12:24:27.734Z,52.00
2023-04-05T12:27:01.261Z,51.50
2023-04-05T12:29:33.934Z,50.60
2023-04-05T12:32:06.387Z,49.90
2023-04-05T12:34:48.290Z,49.70
2023-04-05T12:39:54.895Z,46.60
2023-04-05T12:42:33.134Z,46.20
2023-04-05T12:45:07.666Z,45.40
2023-04-05T12:47:51.005Z,44.50
2023-04-05T12:50:29.735Z,44.20
2023-04-05T12:53:06.314Z,44.00
2023-04-05T12:55:45.993Z,43.40
2023-04-05T12:58:18.827Z,42.60
2023-04-05T13:00:50.944Z,42.40
2023-04-05T13:03:25.892Z,42.10
2023-04-05T13:06:00.686Z,41.70
2023-04-05T13:08:35.773Z,42.30
2023-04-05T13:11:07.865Z,42.20
2023-04-05T13:13:40.005Z,41.70
2023-04-05T13:16:12.073Z,41.60
2023-04-05T13:18:44.644Z,42.10
2023-04-05T13:21:19.325Z,44.60
2023-04-05T13:23:51.406Z,51.00
2023-04-05T13:26:23.696Z,53.20
2023-04-05T13:28:55.791Z,59.80
2023-04-05T13:31:27.975Z,59.10
2023-04-05T13:44:12.386Z,44.10
2023-04-05T13:46:44.548Z,44.80
2023-04-05T13:49:16.729Z,45.40
2023-04-05T13:51:51.419Z,45.80
2023-04-05T13:54:23.495Z,47.30
2023-04-05T13:56:56.506Z,50.70
2023-04-05T13:59:28.686Z,42.70
2023-04-05T14:02:00.987Z,46.10
2023-04-05T14:04:33.171Z,44.10
2023-04-05T14:07:08.396Z,46.60
2023-04-05T14:09:40.627Z,48.60
2023-04-05T14:12:14.154Z,56.20
2023-04-05T14:14:46.915Z,58.30
2023-04-05T14:17:19.155Z,47.10
2023-04-05T14:19:51.301Z,44.30
2023-04-05T14:22:26.068Z,43.50
2023-04-05T14:24:58.178Z,43.50
2023-04-05T14:27:30.443Z,44.70
2023-04-05T14:30:02.674Z,43.00
2023-04-05T14:32:34.958Z,42.50
2023-04-05T14:35:08.589Z,42.60
2023-04-05T14:37:43.295Z,42.80
2023-04-05T14:40:15.695Z,42.70
2023-04-05T14:42:50.258Z,42.90
2023-04-05T14:45:23.523Z,42.80
2023-04-05T14:47:56.227Z,42.70
2023-04-05T14:50:32.434Z,42.80
2023-04-05T14:53:07.366Z,44.00
2023-04-05T14:55:40.778Z,44.10
2023-04-05T14:58:14.448Z,42.30
2023-04-05T15:00:49.931Z,42.80
2023-04-05T15:03:22.266Z,48.00
2023-04-05T15:05:54.711Z,45.80
2023-04-05T15:08:29.718Z,50.90
2023-04-05T15:11:01.955Z,54.20
2023-04-05T15:13:34.366Z,53.80
2023-04-05T15:16:06.648Z,49.70
2023-04-05T15:18:39.002Z,53.30
2023-04-05T15:21:11.257Z,53.30
2023-04-05T15:23:46.807Z,52.60
2023-04-05T15:26:18.909Z,52.50
2023-04-05T15:28:51.173Z,51.60
2023-04-05T15:31:23.333Z,52.10
2023-04-05T15:33:55.476Z,51.70
2023-04-05T15:36:28.400Z,52.30
2023-04-05T15:39:05.283Z,52.00
2023-04-05T15:41:37.610Z,49.40
2023-04-05T15:44:09.893Z,50.70
2023-04-05T15:46:42.611Z,49.30
2023-04-05T15:49:16.927Z,49.20
2023-04-05T15:51:49.683Z,46.50
2023-04-05T15:54:24.324Z,45.10
2023-04-05T15:56:57.096Z,49.30
2023-04-05T15:59:29.266Z,53.70
2023-04-05T16:02:01.506Z,51.20
2023-04-05T16:04:33.562Z,51.00
2023-04-05T16:07:06.823Z,51.60
2023-04-05T16:09:41.509Z,52.40
2023-04-05T16:12:13.682Z,53.40
2023-04-05T16:14:45.788Z,54.30
2023-04-05T16:17:18.031Z,48.10
2023-04-05T16:19:50.181Z,45.60
2023-04-05T16:22:22.609Z,45.30
2023-04-05T16:24:57.231Z,47.20
2023-04-05T16:27:29.318Z,45.50
2023-04-05T16:30:01.425Z,45.90
2023-04-05T16:32:33.533Z,48.50
2023-04-05T16:35:06.595Z,48.90
2023-04-05T16:37:39.045Z,44.50
2023-04-05T16:40:13.994Z,46.50
2023-04-05T16:42:46.050Z,49.00
2023-04-05T16:45:18.254Z,60.20
2023-04-05T16:47:50.563Z,61.10
2023-04-05T16:50:22.736Z,51.90
2023-04-05T16:52:54.949Z,61.00
2023-04-05T16:55:29.622Z,60.40
2023-04-05T16:58:01.747Z,60.00
2023-04-05T17:00:33.844Z,59.50
2023-04-05T17:03:06.182Z,59.10
2023-04-05T17:05:38.507Z,60.60
2023-04-05T17:08:12.769Z,63.80
2023-04-05T17:10:47.740Z,58.10
2023-04-05T17:13:19.907Z,53.80
2023-04-05T17:15:52.010Z,51.80
2023-04-05T17:18:24.150Z,51.60
2023-04-05T17:20:56.469Z,57.40
2023-04-05T17:23:28.724Z,62.80
2023-04-05T17:26:03.578Z,53.80
2023-04-05T17:28:35.910Z,52.00
2023-04-05T17:31:08.152Z,56.90
2023-04-05T17:33:40.852Z,56.30
2023-04-05T17:36:13.033Z,58.80
2023-04-05T17:38:45.910Z,59.80
2023-04-05T17:41:20.664Z,60.00
2023-04-05T17:49:15.080Z,44.50
2023-04-05T17:51:47.531Z,41.60
2023-04-05T17:54:19.682Z,49.40
2023-04-05T17:56:54.330Z,51.70
2023-04-05T17:59:26.457Z,47.40
2023-04-05T18:01:58.646Z,42.50
2023-04-05T18:07:03.204Z,36.60
2023-04-05T18:09:36.401Z,37.30
2023-04-05T18:12:11.115Z,37.40
2023-04-05T18:14:43.276Z,37.60
2023-04-05T18:17:15.506Z,37.60
2023-04-05T18:19:49.521Z,37.80
2023-04-05T18:22:21.748Z,38.00
2023-04-05T18:24:53.817Z,38.00
2023-04-05T18:27:29.088Z,38.10
2023-04-05T18:30:01.352Z,45.20
2023-04-05T18:32:33.480Z,45.30
2023-04-05T18:35:06.927Z,48.60
2023-04-05T18:37:40.253Z,45.80
2023-04-05T18:42:48.110Z,66.40
2023-04-05T18:45:20.801Z,39.00
2023-04-05T18:47:52.895Z,39.00
2023-04-05T18:50:24.986Z,39.20
2023-04-05T18:52:57.165Z,39.40
2023-04-05T18:55:29.235Z,39.90
2023-04-05T18:58:03.912Z,40.90
2023-04-05T19:00:36.175Z,41.70
2023-04-05T19:03:08.500Z,42.10
2023-04-05T19:05:40.808Z,42.30
2023-04-05T19:08:12.862Z,42.40
2023-04-05T19:10:44.966Z,42.40
2023-04-05T19:13:19.652Z,42.40
2023-04-05T19:15:51.744Z,42.30
2023-04-05T19:18:27.787Z,42.80
2023-04-05T19:21:01.307Z,42.30
2023-04-05T19:23:33.410Z,42.20
2023-04-05T19:26:05.777Z,42.20
2023-04-05T19:28:40.421Z,42.10
2023-04-05T19:31:12.938Z,42.10
2023-04-05T19:33:45.086Z,42.00
2023-04-05T19:36:17.277Z,42.00
2023-04-05T19:38:52.009Z,42.00
2023-04-05T19:41:25.412Z,42.10
2023-04-05T19:44:00.482Z,42.70
2023-04-05T19:46:33.897Z,42.10
2023-04-05T19:49:09.175Z,42.10
2023-04-05T19:51:42.548Z,42.00
2023-04-05T19:54:15.156Z,42.10
2023-04-05T19:56:47.366Z,42.10
2023-04-05T19:59:32.255Z,42.00
2023-04-05T20:02:14.420Z,42.10
2023-04-05T20:04:46.496Z,42.10
2023-04-05T20:07:18.557Z,42.00
2023-04-05T20:09:50.838Z,42.00
2023-04-05T20:12:23.478Z,42.10
2023-04-05T20:14:58.123Z,42.20
2023-04-05T20:17:30.228Z,42.30
2023-04-05T20:20:02.457Z,42.30
2023-04-05T20:22:34.587Z,42.30
2023-04-05T20:25:38.002Z,42.40
2023-04-05T20:28:43.321Z,42.40
2023-04-05T20:31:21.174Z,42.50
2023-04-05T20:33:54.338Z,42.50
2023-04-05T20:36:32.421Z,42.50
2023-04-05T20:39:06.474Z,42.60
2023-04-05T20:41:38.958Z,42.60
2023-04-05T20:44:11.347Z,42.70
2023-04-05T20:46:46.776Z,42.90
2023-04-05T20:49:18.884Z,43.00
2023-04-05T20:51:51.088Z,43.10
2023-04-05T20:54:24.015Z,43.20
2023-04-05T20:56:56.094Z,43.20
2023-04-05T20:59:28.159Z,43.20
2023-04-05T21:02:02.898Z,43.20
2023-04-05T21:04:35.068Z,43.20
2023-04-05T21:07:07.181Z,43.30
2023-04-05T21:09:39.251Z,42.90
2023-04-05T21:12:11.442Z,43.50
2023-04-05T21:14:43.492Z,43.60
2023-04-05T21:17:18.270Z,43.70
2023-04-05T21:19:50.728Z,43.70
2023-04-05T21:22:22.915Z,43.70
2023-04-05T21:24:55.000Z,43.70
2023-04-05T21:27:27.577Z,43.80
2023-04-05T21:29:59.681Z,45.20
2023-04-05T21:32:34.581Z,49.10
2023-04-05T21:35:07.488Z,51.80
2023-04-05T21:37:39.542Z,52.80
2023-04-05T21:40:12.544Z,60.40
2023-04-05T21:42:44.724Z,59.40
2023-04-05T21:45:16.824Z,56.40
2023-04-05T21:47:51.681Z,49.20
2023-04-05T21:50:24.594Z,51.50
2023-04-05T21:52:56.712Z,63.50
2023-04-05T21:55:28.800Z,49.00
2023-04-05T21:58:01.138Z,43.50
2023-04-05T22:00:33.316Z,43.80
2023-04-05T22:05:40.458Z,43.40
2023-04-05T22:08:12.532Z,44.00
2023-04-05T22:10:44.633Z,44.20
2023-04-05T22:13:17.219Z,44.30
2023-04-05T22:15:49.795Z,44.50
2023-04-05T22:18:25.725Z,44.80
2023-04-05T22:20:57.890Z,45.10
2023-04-05T22:23:32.076Z,73.10
2023-04-05T22:26:06.820Z,45.10
2023-04-05T22:28:38.966Z,45.60
2023-04-05T22:31:11.085Z,45.70
2023-04-05T22:33:45.813Z,45.90
2023-04-05T22:36:17.904Z,46.20
2023-04-05T22:38:51.675Z,46.40
2023-04-05T22:41:25.750Z,46.50
2023-04-05T22:43:57.800Z,46.70
2023-04-05T22:46:30.033Z,46.90
2023-04-05T22:49:04.797Z,47.10
2023-04-05T22:51:37.062Z,47.30
2023-04-05T22:54:09.150Z,47.40
2023-04-05T22:56:41.299Z,47.50
2023-04-05T22:59:13.418Z,47.80
2023-04-05T23:01:45.679Z,47.90
2023-04-05T23:09:25.398Z,47.50
2023-04-05T23:11:57.486Z,48.10
2023-04-05T23:14:29.556Z,48.30
2023-04-05T23:17:01.537Z,49.30
2023-04-05T23:19:36.279Z,48.50
2023-04-05T23:22:09.324Z,48.50
2023-04-05T23:24:41.370Z,48.70
2023-04-05T23:27:13.211Z,48.90
2023-04-05T23:29:45.378Z,48.90
2023-04-05T23:32:17.420Z,48.90
2023-04-05T23:34:52.634Z,49.20
2023-04-05T23:37:24.820Z,49.10
2023-04-05T23:39:56.879Z,49.10
2023-04-05T23:42:28.734Z,49.40
2023-04-05T23:45:03.073Z,49.40
2023-04-05T23:47:35.226Z,49.40
2023-04-05T23:50:10.516Z,49.70
2023-04-05T23:52:42.417Z,50.00
2023-04-05T23:55:14.330Z,50.00
2023-04-05T23:57:46.537Z,50.60
